createdAt,value
2018-09-18T07:21:57.626Z,23.13
2018-09-18T07:23:59.673Z,12.17
2018-09-18T07:26:01.722Z,13.00
2018-09-18T07:28:03.760Z,7.60
2018-09-18T07:30:07.819Z,7.77
2018-09-18T07:32:09.893Z,7.87
2018-09-18T07:34:11.929Z,7.80
2018-09-18T07:36:14.136Z,4.90
2018-09-18T07:38:16.187Z,10.23
2018-09-18T07:40:18.309Z,7.70
2018-09-18T07:42:20.349Z,4.70
2018-09-18T07:44:22.485Z,4.73
2018-09-18T07:46:24.644Z,11.17
2018-09-18T07:48:31.349Z,10.90
2018-09-18T07:50:33.381Z,10.77
2018-09-18T07:52:35.440Z,4.20
2018-09-18T07:54:37.519Z,5.80
2018-09-18T07:56:39.580Z,7.33
2018-09-18T07:58:41.629Z,5.93
2018-09-18T08:00:43.680Z,8.80
2018-09-18T08:02:45.711Z,6.33
2018-09-18T08:04:47.750Z,5.93
2018-09-18T08:06:49.818Z,14.63
2018-09-18T08:08:51.863Z,5.63
2018-09-18T08:10:54.055Z,6.13
2018-09-18T08:12:56.105Z,5.03
2018-09-18T08:14:58.152Z,6.00
2018-09-18T08:17:00.244Z,8.67
2018-09-18T08:19:02.448Z,4.90
2018-09-18T08:21:04.496Z,5.23
2018-09-18T08:23:06.548Z,8.43
2018-09-18T08:25:08.618Z,10.83
2018-09-18T08:27:10.663Z,14.10
2018-09-18T08:29:12.709Z,11.10
2018-09-18T08:31:14.781Z,9.10
2018-09-18T08:33:16.805Z,7.87
2018-09-18T08:35:18.917Z,12.23
2018-09-18T08:37:20.973Z,7.43
2018-09-18T08:39:23.027Z,7.50
2018-09-18T08:41:25.104Z,6.20
2018-09-18T08:43:27.184Z,9.73
2018-09-18T08:45:29.233Z,14.23
2018-09-18T08:47:31.307Z,5.80
2018-09-18T08:49:33.348Z,7.83
2018-09-18T08:51:35.455Z,17.77
2018-09-18T08:53:38.283Z,8.93
2018-09-18T08:55:40.472Z,5.47
2018-09-18T08:57:42.554Z,6.20
2018-09-18T08:59:44.710Z,5.60
2018-09-18T09:01:46.829Z,6.07
2018-09-18T09:03:49.212Z,13.87
2018-09-18T09:05:57.112Z,10.37
2018-09-18T09:08:02.795Z,8.17
2018-09-18T09:10:06.120Z,4.70
2018-09-18T09:12:09.360Z,8.90
2018-09-18T09:14:15.235Z,6.07
2018-09-18T09:16:18.720Z,10.10
2018-09-18T09:18:39.523Z,5.23
2018-09-18T09:20:51.950Z,8.00
2018-09-18T09:22:56.186Z,6.53
2018-09-18T09:25:01.581Z,3.97
2018-09-18T09:27:05.319Z,6.90
2018-09-18T09:29:07.565Z,8.70
2018-09-18T09:31:11.152Z,5.60
2018-09-18T09:33:25.075Z,6.00
2018-09-18T09:35:28.814Z,5.13
2018-09-18T09:37:39.171Z,16.97
2018-09-18T09:39:48.303Z,5.00
2018-09-18T09:46:19.452Z,5.97
2018-09-18T09:48:41.649Z,19.00
2018-09-18T09:50:44.787Z,9.33
2018-09-18T09:55:39.589Z,4.80
2018-09-18T09:57:58.963Z,4.73
2018-09-18T10:00:01.192Z,8.10
2018-09-18T10:02:09.186Z,5.13
2018-09-18T10:04:11.293Z,5.40
2018-09-18T10:06:13.433Z,8.87
2018-09-18T10:08:15.514Z,5.10
2018-09-18T10:10:17.602Z,7.10
2018-09-18T10:12:19.838Z,16.07
2018-09-18T10:14:21.979Z,6.57
2018-09-18T10:16:24.032Z,8.03
2018-09-18T10:18:26.114Z,6.57
2018-09-18T10:20:28.245Z,4.73
2018-09-18T10:22:30.377Z,4.50
2018-09-18T10:24:32.468Z,6.40
2018-09-18T10:26:34.603Z,9.87
2018-09-18T10:28:36.718Z,7.53
2018-09-18T10:30:38.814Z,5.20
2018-09-18T10:32:40.931Z,4.23
2018-09-18T10:34:42.953Z,4.70
2018-09-18T10:36:44.981Z,6.43
2018-09-18T10:38:47.062Z,6.30
2018-09-18T10:40:49.145Z,5.47
2018-09-18T10:42:51.353Z,9.80
2018-09-18T10:44:53.303Z,4.20
2018-09-18T10:46:55.437Z,4.77
2018-09-18T10:48:57.957Z,7.00
2018-09-18T10:51:00.033Z,8.27
2018-09-18T10:53:02.142Z,6.77
2018-09-18T10:55:04.249Z,4.50
2018-09-18T10:57:06.334Z,6.80
2018-09-18T10:59:08.402Z,12.03
2018-09-18T11:01:10.485Z,10.57
2018-09-18T11:03:12.540Z,10.40
2018-09-18T11:05:14.610Z,4.33
2018-09-18T11:07:16.696Z,7.43
2018-09-18T11:09:18.787Z,17.10
2018-09-18T11:11:20.834Z,6.17
2018-09-18T11:13:22.903Z,6.37
2018-09-18T11:15:25.016Z,7.63
2018-09-18T11:17:27.105Z,5.83
2018-09-18T11:19:29.269Z,9.20
2018-09-18T11:21:31.390Z,4.77
2018-09-18T11:23:33.461Z,6.83
2018-09-18T11:25:35.602Z,5.13
2018-09-18T11:27:37.699Z,5.03
2018-09-18T11:29:39.828Z,5.00
2018-09-18T11:31:41.915Z,4.97
2018-09-18T11:33:43.992Z,6.90
2018-09-18T11:35:46.109Z,5.50
2018-09-18T11:37:48.206Z,4.50
2018-09-18T11:39:50.331Z,3.97
2018-09-18T11:41:52.461Z,3.93
2018-09-18T11:43:54.553Z,3.97
2018-09-18T11:45:57.068Z,10.93
2018-09-18T11:47:59.227Z,4.23
2018-09-18T11:50:01.574Z,5.07
2018-09-18T11:52:03.858Z,12.53
2018-09-18T11:54:06.955Z,6.20
2018-09-18T11:56:09.229Z,8.73
2018-09-18T11:58:11.887Z,6.57
2018-09-18T12:00:14.045Z,4.90
2018-09-18T12:02:16.644Z,8.37
2018-09-18T12:04:19.071Z,10.13
2018-09-18T12:06:21.331Z,5.07
2018-09-18T12:08:23.604Z,7.60
2018-09-18T12:10:25.769Z,4.83
2018-09-18T12:12:28.229Z,4.40
2018-09-18T12:14:30.737Z,14.73
2018-09-18T12:16:32.952Z,4.40
2018-09-18T12:18:35.208Z,3.23
2018-09-18T12:20:37.433Z,3.80
2018-09-18T12:22:39.720Z,5.80
2018-09-18T12:24:42.016Z,5.47
2018-09-18T12:26:44.386Z,3.93
2018-09-18T12:28:46.738Z,7.67
2018-09-18T12:30:48.914Z,5.07
2018-09-18T12:32:51.271Z,4.10
2018-09-18T12:34:53.714Z,12.00
2018-09-18T12:36:55.923Z,4.50
2018-09-18T12:38:58.136Z,7.37
2018-09-18T12:41:00.362Z,6.90
2018-09-18T12:43:02.753Z,16.60
2018-09-18T12:45:04.952Z,6.23
2018-09-18T12:47:07.154Z,15.50
2018-09-18T12:49:09.451Z,9.23
2018-09-18T12:51:11.569Z,10.13
2018-09-18T12:53:13.855Z,7.20
2018-09-18T12:55:16.167Z,4.23
2018-09-18T12:57:18.611Z,5.10
2018-09-18T12:59:20.808Z,7.17
2018-09-18T13:01:22.983Z,8.87
2018-09-18T13:03:25.313Z,9.87
2018-09-18T13:05:27.623Z,8.47
2018-09-18T13:07:30.070Z,8.03
2018-09-18T13:09:32.395Z,6.60
2018-09-18T13:11:34.735Z,8.60
2018-09-18T13:13:37.569Z,5.00
2018-09-18T13:15:39.994Z,8.67
2018-09-18T13:17:46.319Z,8.30
2018-09-18T13:19:48.746Z,5.50
2018-09-18T13:21:51.140Z,12.30
2018-09-18T13:23:53.592Z,12.63
2018-09-18T13:25:55.948Z,11.20
2018-09-18T13:27:58.665Z,11.93
2018-09-18T13:30:01.181Z,8.70
2018-09-18T13:32:03.503Z,9.03
2018-09-18T13:34:06.147Z,7.50
2018-09-18T13:36:10.757Z,12.37
2018-09-18T13:38:14.122Z,19.77
2018-09-18T13:40:16.537Z,8.70
2018-09-18T13:42:18.845Z,8.20
2018-09-18T13:44:27.457Z,15.97
2018-09-18T13:46:30.019Z,7.17
2018-09-18T13:48:32.499Z,12.93
2018-09-18T13:50:35.454Z,7.90
2018-09-18T13:52:38.516Z,11.23
2018-09-18T13:54:41.112Z,10.97
2018-09-18T13:56:45.662Z,12.40
2018-09-18T13:58:48.846Z,11.23
2018-09-18T14:00:52.372Z,8.37
2018-09-18T14:03:34.050Z,8.17
2018-09-18T14:05:44.816Z,6.17
2018-09-18T14:07:49.669Z,15.53
2018-09-18T14:09:52.740Z,10.23
2018-09-18T14:11:55.693Z,6.27
2018-09-18T14:13:58.254Z,8.10
2018-09-18T14:16:00.967Z,9.90
2018-09-18T14:18:05.049Z,12.03
2018-09-18T14:20:07.793Z,13.80
2018-09-18T14:22:10.734Z,8.57
2018-09-18T14:24:13.232Z,6.70
2018-09-18T14:26:15.696Z,7.67
2018-09-18T14:28:19.799Z,12.83
2018-09-18T14:30:22.430Z,5.70
2018-09-18T14:32:26.041Z,6.03
2018-09-18T14:34:29.119Z,4.80
2018-09-18T14:36:32.380Z,5.50
2018-09-18T14:38:34.968Z,8.33
2018-09-18T14:40:37.850Z,10.90
2018-09-18T14:42:42.006Z,6.20
2018-09-18T14:44:45.267Z,17.80
2018-09-18T14:46:51.652Z,4.27
2018-09-18T14:48:54.835Z,8.03
2018-09-18T14:50:57.222Z,8.50
2018-09-18T14:53:00.119Z,8.77
2018-09-18T14:55:02.739Z,6.70
2018-09-18T14:57:04.973Z,11.40
2018-09-18T14:59:07.126Z,7.17
2018-09-18T15:01:09.353Z,12.20
2018-09-18T15:03:11.503Z,8.30
2018-09-18T15:05:13.747Z,9.50
2018-09-18T15:07:16.648Z,10.97
2018-09-18T15:09:20.429Z,7.33
2018-09-18T15:11:22.795Z,9.43
2018-09-18T15:13:24.990Z,11.47
2018-09-18T15:15:27.396Z,7.53
2018-09-18T15:17:29.409Z,12.47
2018-09-18T15:19:31.566Z,9.03
2018-09-18T15:21:33.990Z,9.90
2018-09-18T15:23:36.036Z,7.93
2018-09-18T15:25:38.153Z,7.23
2018-09-18T16:52:05.141Z,7.70
2018-09-18T16:54:08.003Z,9.00
2018-09-18T16:56:10.318Z,17.37
2018-09-18T16:58:12.391Z,6.20
2018-09-18T17:00:14.800Z,20.13
2018-09-18T17:02:17.558Z,17.60
2018-09-18T17:04:19.642Z,8.63
2018-09-18T17:06:23.488Z,10.00
2018-09-18T17:08:26.206Z,6.60
2018-09-18T17:10:29.674Z,15.20
2018-09-18T17:12:31.834Z,8.03
2018-09-18T17:14:35.302Z,13.23
2018-09-18T17:16:37.499Z,9.93
2018-09-18T17:18:39.689Z,17.33
2018-09-18T17:20:42.970Z,16.63
2018-09-18T17:22:45.194Z,6.73
2018-09-18T17:24:47.345Z,12.43
2018-09-18T17:26:49.533Z,7.53
2018-09-18T17:28:51.761Z,18.03
2018-09-18T17:30:54.131Z,8.27
2018-09-18T17:32:56.299Z,8.10
2018-09-18T17:34:58.686Z,6.93
2018-09-18T17:37:00.927Z,11.70
2018-09-18T17:39:04.989Z,8.10
2018-09-18T17:41:07.600Z,17.77
2018-09-18T17:43:09.769Z,18.33
2018-09-18T17:45:12.398Z,7.70
2018-09-18T17:47:14.871Z,13.70
2018-09-18T17:49:16.974Z,19.73
2018-09-18T17:51:19.194Z,14.53
2018-09-18T17:53:22.394Z,22.33
2018-09-18T17:55:24.870Z,8.17
2018-09-18T17:57:27.518Z,20.40
2018-09-18T17:59:30.556Z,8.73
2018-09-18T18:01:32.805Z,12.93
2018-09-18T18:03:36.653Z,8.53
2018-09-18T18:05:38.921Z,15.77
2018-09-18T18:07:40.959Z,15.77
2018-09-18T18:09:43.113Z,16.33
2018-09-18T18:11:45.197Z,11.03
2018-09-18T18:13:47.275Z,21.23
2018-09-18T18:15:49.392Z,8.37
2018-09-18T18:17:51.468Z,14.13
2018-09-18T18:19:53.523Z,12.30
2018-09-18T18:21:55.581Z,11.40
2018-09-18T18:23:57.604Z,12.03
2018-09-18T18:28:29.314Z,10.83
2018-09-18T18:30:31.402Z,9.13
2018-09-18T18:32:33.476Z,10.53
2018-09-18T18:34:35.526Z,17.73
2018-09-18T18:36:37.591Z,20.83
2018-09-18T18:38:39.666Z,15.20
2018-09-18T18:40:41.790Z,17.67
2018-09-18T18:42:43.809Z,9.23
2018-09-18T18:44:45.971Z,21.83
2018-09-18T18:46:48.037Z,12.03
2018-09-18T18:48:50.172Z,20.70
2018-09-18T18:50:52.213Z,15.80
2018-09-18T18:52:54.293Z,10.13
2018-09-18T18:54:56.450Z,10.83
2018-09-18T18:56:58.526Z,12.70
2018-09-18T18:59:00.659Z,11.13
2018-09-18T19:01:02.716Z,16.07
2018-09-18T19:03:04.755Z,11.67
2018-09-18T19:05:06.895Z,7.80
2018-09-18T19:07:08.970Z,12.33
2018-09-18T19:09:11.161Z,13.83
2018-09-18T19:11:13.224Z,19.93
2018-09-18T19:13:15.292Z,14.00
2018-09-18T19:15:17.392Z,18.50
2018-09-18T19:17:19.476Z,36.53
2018-09-18T19:19:21.599Z,15.17
2018-09-18T19:21:23.767Z,9.20
2018-09-18T19:23:25.927Z,11.10
2018-09-18T19:25:28.005Z,13.13
2018-09-18T19:27:30.033Z,7.43
2018-09-18T19:29:32.099Z,6.70
2018-09-18T19:31:34.416Z,14.93
2018-09-18T19:33:36.596Z,8.53
2018-09-18T19:35:38.642Z,5.03
2018-09-18T19:37:40.662Z,9.83
2018-09-18T19:39:42.761Z,10.53
2018-09-18T19:41:47.096Z,9.00
2018-09-18T19:43:49.171Z,12.73
2018-09-18T19:45:51.264Z,11.27
2018-09-18T19:47:53.295Z,9.00
2018-09-18T19:49:55.353Z,16.40
2018-09-18T19:51:57.410Z,8.87
2018-09-18T19:53:59.674Z,9.20
2018-09-18T19:56:01.832Z,6.83
2018-09-18T19:58:03.971Z,9.70
2018-09-18T20:00:06.967Z,8.80
2018-09-18T20:02:09.019Z,17.70
2018-09-18T20:04:11.243Z,12.10
2018-09-18T20:06:13.337Z,15.67
2018-09-18T20:08:15.456Z,5.10
2018-09-18T20:10:17.519Z,13.33
2018-09-18T20:12:19.686Z,13.20
2018-09-18T20:14:21.854Z,10.03
2018-09-18T20:16:24.015Z,15.27
2018-09-18T20:18:26.049Z,14.00
2018-09-18T20:20:28.100Z,6.70
2018-09-18T20:22:30.161Z,8.63
2018-09-18T20:24:32.287Z,9.43
2018-09-18T20:26:34.380Z,10.13
2018-09-18T20:28:36.572Z,10.03
2018-09-18T20:30:38.625Z,11.43
2018-09-18T20:32:40.708Z,12.30
2018-09-18T20:34:42.866Z,10.63
2018-09-18T20:36:47.283Z,16.83
2018-09-18T20:38:49.345Z,12.80
2018-09-18T20:40:51.417Z,11.97
2018-09-18T20:42:53.525Z,18.43
2018-09-18T20:44:55.565Z,10.37
2018-09-18T20:46:57.966Z,13.17
2018-09-18T20:49:00.055Z,10.87
2018-09-18T20:51:02.189Z,14.27
2018-09-18T20:53:04.257Z,16.70
2018-09-18T20:55:06.342Z,17.17
2018-09-18T20:57:08.445Z,10.33
2018-09-18T20:59:10.485Z,15.90
2018-09-18T21:01:12.558Z,17.10
2018-09-18T21:03:14.606Z,11.50
2018-09-18T21:05:16.757Z,11.73
2018-09-18T21:07:18.818Z,16.67
2018-09-18T21:09:20.910Z,22.73
2018-09-18T21:11:22.960Z,8.30
2018-09-18T21:13:25.004Z,18.93
2018-09-18T21:15:27.050Z,9.93
2018-09-18T21:17:29.081Z,8.17
2018-09-18T21:19:31.140Z,10.40
2018-09-18T21:21:33.241Z,16.97
2018-09-18T21:23:35.322Z,18.33
2018-09-18T21:25:58.237Z,19.20
2018-09-18T21:28:00.298Z,23.23
2018-09-18T21:30:02.362Z,33.70
2018-09-18T21:32:04.470Z,34.60
2018-09-18T21:34:06.537Z,38.43
2018-09-18T21:36:08.615Z,49.80
2018-09-18T21:38:10.660Z,37.83
2018-09-18T21:40:12.713Z,37.20
2018-09-18T21:42:14.779Z,42.90
2018-09-18T21:44:16.821Z,47.57
2018-09-18T21:46:18.941Z,50.70
2018-09-18T21:48:20.992Z,44.17
2018-09-18T21:50:23.061Z,48.60
2018-09-18T21:52:25.337Z,61.70
2018-09-18T21:54:27.401Z,57.17
2018-09-18T21:56:29.462Z,58.23
2018-09-18T21:58:31.548Z,63.70
2018-09-18T22:00:33.601Z,63.53
2018-09-18T22:02:35.677Z,67.20
2018-09-18T22:04:37.742Z,72.07
2018-09-18T22:06:39.794Z,63.40
2018-09-18T22:08:41.851Z,60.30
2018-09-18T22:10:43.919Z,72.23
2018-09-18T22:12:46.061Z,70.43
2018-09-18T22:14:48.123Z,69.60
2018-09-18T22:16:50.190Z,71.10
2018-09-18T22:18:52.247Z,84.17
2018-09-18T22:20:54.285Z,63.30
2018-09-18T22:22:56.362Z,82.63
2018-09-18T22:24:58.426Z,74.10
2018-09-18T22:27:00.745Z,70.77
2018-09-18T22:29:02.809Z,86.13
2018-09-18T22:31:04.912Z,75.17
2018-09-18T22:33:07.005Z,69.73
2018-09-18T22:35:09.053Z,58.83
2018-09-18T22:37:11.109Z,58.07
2018-09-18T22:39:13.154Z,53.47
2018-09-18T22:41:15.206Z,52.23
2018-09-18T22:43:17.287Z,64.83
2018-09-18T22:45:19.407Z,49.30
2018-09-18T22:47:21.485Z,53.27
2018-09-18T22:49:23.579Z,63.10
2018-09-18T22:51:25.633Z,58.07
2018-09-18T22:53:27.670Z,58.13
2018-09-18T22:55:29.705Z,44.83
2018-09-18T22:57:31.848Z,44.90
2018-09-18T22:59:33.866Z,45.17
2018-09-18T23:01:35.921Z,43.83
2018-09-18T23:03:38.000Z,53.10
2018-09-18T23:05:40.088Z,60.60
2018-09-18T23:07:42.149Z,40.97
2018-09-18T23:09:44.216Z,46.73
2018-09-18T23:11:46.308Z,42.00
2018-09-18T23:13:48.363Z,54.50
2018-09-18T23:15:50.428Z,66.50
2018-09-18T23:17:52.536Z,59.93
2018-09-18T23:19:54.615Z,45.40
2018-09-18T23:21:59.033Z,45.00
2018-09-18T23:24:01.103Z,54.90
2018-09-18T23:26:03.166Z,46.40
2018-09-18T23:28:05.343Z,47.13
2018-09-18T23:30:07.390Z,55.93
2018-09-18T23:32:09.475Z,43.30
2018-09-18T23:34:11.609Z,41.70
2018-09-18T23:36:13.689Z,46.53
2018-09-18T23:38:15.799Z,46.23
2018-09-18T23:40:17.938Z,50.33
2018-09-18T23:42:20.138Z,48.73
2018-09-18T23:44:22.038Z,39.40
2018-09-18T23:46:24.132Z,38.93
2018-09-18T23:48:26.180Z,45.00
2018-09-18T23:50:28.214Z,52.20
2018-09-18T23:52:30.249Z,42.60
2018-09-18T23:54:32.375Z,37.20
2018-09-18T23:56:34.373Z,41.70
2018-09-18T23:58:36.413Z,43.97
